sensor_id;sensor_type;location;lat;lon;timestamp;pressure;altitude;pressure_sealevel;temperature;humidity
37368;BME280;23240;43.210;27.910;2023-02-08T00:01:08;102919.56;;;-0.79;100.00
37368;BME280;23240;43.210;27.910;2023-02-08T00:03:35;102910.81;;;-0.78;100.00
37368;BME280;23240;43.210;27.910;2023-02-08T00:06:01;102915.22;;;-0.86;100.00
37368;BME280;23240;43.210;27.910;2023-02-08T00:08:26;102917.81;;;-0.83;100.00
37368;BME280;23240;43.210;27.910;2023-02-08T00:10:52;102915.19;;;-0.80;100.00
37368;BME280;23240;43.210;27.910;2023-02-08T00:13:17;102917.84;;;-0.77;100.00
37368;BME280;23240;43.210;27.910;2023-02-08T00:15:44;102914.31;;;-0.84;100.00
37368;BME280;23240;43.210;27.910;2023-02-08T00:18:10;102912.56;;;-0.79;100.00
37368;BME280;23240;43.210;27.910;2023-02-08T00:20:42;102914.31;;;-0.90;100.00
37368;BME280;23240;43.210;27.910;2023-02-08T00:23:08;102920.44;;;-0.97;100.00
37368;BME280;23240;43.210;27.910;2023-02-08T00:25:35;102922.19;;;-1.05;100.00
37368;BME280;23240;43.210;27.910;2023-02-08T00:28:00;102917.81;;;-1.11;100.00
37368;BME280;23240;43.210;27.910;2023-02-08T00:30:26;102925.72;;;-1.06;100.00
37368;BME280;23240;43.210;27.910;2023-02-08T00:32:51;102926.56;;;-1.04;100.00
37368;BME280;23240;43.210;27.910;2023-02-08T00:35:17;102924.84;;;-0.94;100.00
37368;BME280;23240;43.210;27.910;2023-02-08T00:37:42;102924.84;;;-0.88;100.00
37368;BME280;23240;43.210;27.910;2023-02-08T00:40:08;102921.34;;;-0.84;100.00
37368;BME280;23240;43.210;27.910;2023-02-08T00:42:34;102927.47;;;-0.87;100.00
37368;BME280;23240;43.210;27.910;2023-02-08T00:44:59;102923.06;;;-0.92;100.00
37368;BME280;23240;43.210;27.910;2023-02-08T00:47:25;102929.22;;;-0.98;100.00
37368;BME280;23240;43.210;27.910;2023-02-08T00:49:50;102928.34;;;-0.92;100.00
37368;BME280;23240;43.210;27.910;2023-02-08T00:52:18;102923.09;;;-0.86;100.00
37368;BME280;23240;43.210;27.910;2023-02-08T00:54:44;102928.34;;;-0.86;100.00
37368;BME280;23240;43.210;27.910;2023-02-08T00:57:09;102935.38;;;-0.96;100.00
37368;BME280;23240;43.210;27.910;2023-02-08T00:59:35;102934.47;;;-1.01;100.00
37368;BME280;23240;43.210;27.910;2023-02-08T01:02:00;102940.59;;;-1.20;100.00
37368;BME280;23240;43.210;27.910;2023-02-08T01:04:26;102945.84;;;-1.25;100.00
37368;BME280;23240;43.210;27.910;2023-02-08T01:06:51;102943.19;;;-1.23;100.00
37368;BME280;23240;43.210;27.910;2023-02-08T01:09:17;102950.22;;;-1.24;100.00
37368;BME280;23240;43.210;27.910;2023-02-08T01:11:42;102955.50;;;-1.21;100.00
37368;BME280;23240;43.210;27.910;2023-02-08T01:14:08;102960.72;;;-1.25;100.00
37368;BME280;23240;43.210;27.910;2023-02-08T01:16:33;102961.59;;;-1.25;100.00
37368;BME280;23240;43.210;27.910;2023-02-08T01:19:01;102966.81;;;-1.31;100.00
37368;BME280;23240;43.210;27.910;2023-02-08T01:21:29;102972.06;;;-1.40;100.00
37368;BME280;23240;43.210;27.910;2023-02-08T01:23:55;102961.53;;;-1.46;100.00
37368;BME280;23240;43.210;27.910;2023-02-08T01:26:22;102968.53;;;-1.45;100.00
37368;BME280;23240;43.210;27.910;2023-02-08T01:28:48;102965.03;;;-1.47;100.00
37368;BME280;23240;43.210;27.910;2023-02-08T01:31:20;102972.88;;;-1.57;100.00
37368;BME280;23240;43.210;27.910;2023-02-08T01:33:46;102971.13;;;-1.56;100.00
37368;BME280;23240;43.210;27.910;2023-02-08T01:36:12;102974.66;;;-1.49;100.00
37368;BME280;23240;43.210;27.910;2023-02-08T01:38:39;102979.91;;;-1.46;100.00
37368;BME280;23240;43.210;27.910;2023-02-08T01:41:06;102977.25;;;-1.56;100.00
37368;BME280;23240;43.210;27.910;2023-02-08T01:43:56;102975.50;;;-1.50;100.00
37368;BME280;23240;43.210;27.910;2023-02-08T01:46:19;102982.50;;;-1.56;100.00
37368;BME280;23240;43.210;27.910;2023-02-08T01:48:44;102985.16;;;-1.51;100.00
37368;BME280;23240;43.210;27.910;2023-02-08T01:51:15;102989.59;;;-1.42;100.00
37368;BME280;23240;43.210;27.910;2023-02-08T01:53:43;102992.22;;;-1.44;100.00
37368;BME280;23240;43.210;27.910;2023-02-08T01:56:14;102996.53;;;-1.50;100.00
37368;BME280;23240;43.210;27.910;2023-02-08T01:58:45;103001.78;;;-1.57;100.00
37368;BME280;23240;43.210;27.910;2023-02-08T02:01:13;102992.94;;;-1.75;100.00
37368;BME280;23240;43.210;27.910;2023-02-08T02:03:38;102994.66;;;-1.82;100.00
37368;BME280;23240;43.210;27.910;2023-02-08T02:06:13;102990.19;;;-1.94;100.00
37368;BME280;23240;43.210;27.910;2023-02-08T02:08:46;102994.53;;;-1.99;100.00
37368;BME280;23240;43.210;27.910;2023-02-08T02:11:16;102997.97;;;-2.11;100.00
37368;BME280;23240;43.210;27.910;2023-02-08T02:13:42;102994.41;;;-2.20;100.00
37368;BME280;23240;43.210;27.910;2023-02-08T02:16:08;102997.03;;;-2.22;100.00
37368;BME280;23240;43.210;27.910;2023-02-08T02:18:33;103001.38;;;-2.24;100.00
37368;BME280;23240;43.210;27.910;2023-02-08T02:30:05;103016.97;;;-2.44;100.00
37368;BME280;23240;43.210;27.910;2023-02-08T02:33:06;103013.34;;;-2.56;100.00
37368;BME280;23240;43.210;27.910;2023-02-08T02:50:29;103028.94;;;-2.75;97.71
37368;BME280;23240;43.210;27.910;2023-02-08T02:53:02;103037.63;;;-2.76;97.61
37368;BME280;23240;43.210;27.910;2023-02-08T02:55:34;103032.38;;;-2.76;97.96
37368;BME280;23240;43.210;27.910;2023-02-08T02:58:04;103028.00;;;-2.80;98.79
37368;BME280;23240;43.210;27.910;2023-02-08T03:00:31;103035.81;;;-2.83;98.81
37368;BME280;23240;43.210;27.910;2023-02-08T03:02:57;103030.53;;;-2.86;97.66
37368;BME280;23240;43.210;27.910;2023-02-08T03:05:24;103041.91;;;-2.89;96.41
37368;BME280;23240;43.210;27.910;2023-02-08T03:13:19;103040.91;;;-2.95;98.92
37368;BME280;23240;43.210;27.910;2023-02-08T03:21:17;103043.59;;;-2.94;100.00
37368;BME280;23240;43.210;27.910;2023-02-08T03:26:36;103040.91;;;-2.97;100.00
37368;BME280;23240;43.210;27.910;2023-02-08T03:31:56;103036.50;;;-3.01;100.00
37368;BME280;23240;43.210;27.910;2023-02-08T03:37:21;103039.94;;;-3.05;100.00
37368;BME280;23240;43.210;27.910;2023-02-08T03:39:52;103039.06;;;-3.05;100.00
37368;BME280;23240;43.210;27.910;2023-02-08T03:42:24;103039.88;;;-3.10;100.00
37368;BME280;23240;43.210;27.910;2023-02-08T03:44:58;103041.63;;;-3.10;100.00
37368;BME280;23240;43.210;27.910;2023-02-08T03:47:27;103037.25;;;-3.13;100.00
37368;BME280;23240;43.210;27.910;2023-02-08T03:49:57;103038.97;;;-3.15;100.00
37368;BME280;23240;43.210;27.910;2023-02-08T03:52:25;103044.19;;;-3.16;100.00
37368;BME280;23240;43.210;27.910;2023-02-08T03:54:57;103056.41;;;-3.17;100.00
37368;BME280;23240;43.210;27.910;2023-02-08T03:57:34;103036.34;;;-3.15;100.00
37368;BME280;23240;43.210;27.910;2023-02-08T04:00:10;103055.53;;;-3.19;100.00
37368;BME280;23240;43.210;27.910;2023-02-08T04:02:36;103043.31;;;-3.18;100.00
37368;BME280;23240;43.210;27.910;2023-02-08T04:05:04;103051.00;;;-3.29;100.00
37368;BME280;23240;43.210;27.910;2023-02-08T04:07:30;103045.75;;;-3.30;100.00
37368;BME280;23240;43.210;27.910;2023-02-08T04:09:56;103038.78;;;-3.30;100.00
37368;BME280;23240;43.210;27.910;2023-02-08T04:12:21;103051.88;;;-3.30;100.00
37368;BME280;23240;43.210;27.910;2023-02-08T04:14:47;103066.72;;;-3.32;100.00
37368;BME280;23240;43.210;27.910;2023-02-08T04:17:12;103058.84;;;-3.33;100.00
37368;BME280;23240;43.210;27.910;2023-02-08T04:19:38;103065.78;;;-3.36;100.00
37368;BME280;23240;43.210;27.910;2023-02-08T04:22:03;103070.22;;;-3.33;100.00
37368;BME280;23240;43.210;27.910;2023-02-08T04:24:29;103081.50;;;-3.36;100.00
37368;BME280;23240;43.210;27.910;2023-02-08T04:26:54;103074.47;;;-3.41;100.00
37368;BME280;23240;43.210;27.910;2023-02-08T04:29:20;103070.97;;;-3.39;100.00
37368;BME280;23240;43.210;27.910;2023-02-08T04:31:45;103080.63;;;-3.36;100.00
37368;BME280;23240;43.210;27.910;2023-02-08T04:34:11;103093.69;;;-3.41;100.00
37368;BME280;23240;43.210;27.910;2023-02-08T04:36:36;103084.06;;;-3.40;100.00
37368;BME280;23240;43.210;27.910;2023-02-08T04:39:02;103096.28;;;-3.42;100.00
37368;BME280;23240;43.210;27.910;2023-02-08T04:41:27;103098.97;;;-3.38;100.00
37368;BME280;23240;43.210;27.910;2023-02-08T04:43:53;103098.03;;;-3.40;100.00
37368;BME280;23240;43.210;27.910;2023-02-08T04:46:18;103101.53;;;-3.41;100.00
37368;BME280;23240;43.210;27.910;2023-02-08T04:48:44;103112.94;;;-3.37;100.00
37368;BME280;23240;43.210;27.910;2023-02-08T04:51:09;103147.03;;;-3.34;100.00
37368;BME280;23240;43.210;27.910;2023-02-08T04:53:35;103140.09;;;-3.32;100.00
37368;BME280;23240;43.210;27.910;2023-02-08T04:56:00;103142.72;;;-3.32;100.00
37368;BME280;23240;43.210;27.910;2023-02-08T04:58:26;103150.56;;;-3.33;100.00
37368;BME280;23240;43.210;27.910;2023-02-08T05:00:51;103150.59;;;-3.29;100.00
37368;BME280;23240;43.210;27.910;2023-02-08T05:03:17;103155.88;;;-3.27;100.00
37368;BME280;23240;43.210;27.910;2023-02-08T05:05:42;103155.03;;;-3.25;100.00
37368;BME280;23240;43.210;27.910;2023-02-08T05:08:08;103155.97;;;-3.20;100.00
37368;BME280;23240;43.210;27.910;2023-02-08T05:10:33;103153.34;;;-3.21;100.00
37368;BME280;23240;43.210;27.910;2023-02-08T05:12:59;103163.94;;;-3.14;100.00
37368;BME280;23240;43.210;27.910;2023-02-08T05:15:24;103168.47;;;-3.03;100.00
37368;BME280;23240;43.210;27.910;2023-02-08T05:17:53;103150.16;;;-2.99;100.00
37368;BME280;23240;43.210;27.910;2023-02-08T05:20:18;103173.72;;;-3.02;100.00
37368;BME280;23240;43.210;27.910;2023-02-08T05:22:44;103171.16;;;-2.99;100.00
37368;BME280;23240;43.210;27.910;2023-02-08T05:25:09;103174.59;;;-3.03;100.00
37368;BME280;23240;43.210;27.910;2023-02-08T05:27:35;103171.09;;;-3.00;100.00
37368;BME280;23240;43.210;27.910;2023-02-08T05:30:02;103181.72;;;-2.93;100.00
37368;BME280;23240;43.210;27.910;2023-02-08T05:32:27;103188.75;;;-2.89;100.00
37368;BME280;23240;43.210;27.910;2023-02-08T05:34:53;103188.78;;;-2.86;100.00
37368;BME280;23240;43.210;27.910;2023-02-08T05:37:18;103197.50;;;-2.88;100.00
37368;BME280;23240;43.210;27.910;2023-02-08T05:39:44;103184.41;;;-2.87;100.00
37368;BME280;23240;43.210;27.910;2023-02-08T05:42:09;103188.00;;;-2.78;100.00
37368;BME280;23240;43.210;27.910;2023-02-08T05:44:35;103199.31;;;-2.82;100.00
37368;BME280;23240;43.210;27.910;2023-02-08T05:47:00;103189.72;;;-2.82;100.00
37368;BME280;23240;43.210;27.910;2023-02-08T05:49:26;103201.94;;;-2.84;100.00
37368;BME280;23240;43.210;27.910;2023-02-08T05:51:51;103206.38;;;-2.80;100.00
37368;BME280;23240;43.210;27.910;2023-02-08T05:54:17;103202.91;;;-2.76;100.00
37368;BME280;23240;43.210;27.910;2023-02-08T05:56:42;103198.50;;;-2.80;100.00
37368;BME280;23240;43.210;27.910;2023-02-08T05:59:09;103192.41;;;-2.77;100.00
37368;BME280;23240;43.210;27.910;2023-02-08T06:01:35;103187.09;;;-2.82;100.00
37368;BME280;23240;43.210;27.910;2023-02-08T06:04:01;103188.00;;;-2.80;100.00
37368;BME280;23240;43.210;27.910;2023-02-08T06:06:26;103190.63;;;-2.78;100.00
37368;BME280;23240;43.210;27.910;2023-02-08T06:08:52;103185.41;;;-2.78;100.00
37368;BME280;23240;43.210;27.910;2023-02-08T06:11:18;103192.44;;;-2.73;100.00
37368;BME280;23240;43.210;27.910;2023-02-08T06:13:45;103185.63;;;-2.60;100.00
37368;BME280;23240;43.210;27.910;2023-02-08T06:16:11;103190.00;;;-2.58;100.00
37368;BME280;23240;43.210;27.910;2023-02-08T06:18:37;103182.13;;;-2.61;100.00
37368;BME280;23240;43.210;27.910;2023-02-08T06:21:03;103197.00;;;-2.58;100.00
37368;BME280;23240;43.210;27.910;2023-02-08T06:23:28;103181.31;;;-2.53;100.00
37368;BME280;23240;43.210;27.910;2023-02-08T06:25:55;103190.09;;;-2.51;100.00
37368;BME280;23240;43.210;27.910;2023-02-08T06:28:20;103196.19;;;-2.52;100.00
37368;BME280;23240;43.210;27.910;2023-02-08T06:30:48;103187.50;;;-2.50;100.00
37368;BME280;23240;43.210;27.910;2023-02-08T06:33:14;103186.56;;;-2.52;100.00
37368;BME280;23240;43.210;27.910;2023-02-08T06:35:46;103185.81;;;-2.45;100.00
37368;BME280;23240;43.210;27.910;2023-02-08T06:38:12;103192.97;;;-2.30;100.00
37368;BME280;23240;43.210;27.910;2023-02-08T06:40:38;103178.09;;;-2.31;100.00
37368;BME280;23240;43.210;27.910;2023-02-08T06:43:03;103197.44;;;-2.20;100.00
37368;BME280;23240;43.210;27.910;2023-02-08T06:45:29;103162.53;;;-2.08;100.00
37368;BME280;23240;43.210;27.910;2023-02-08T06:47:54;103181.81;;;-2.08;100.00
37368;BME280;23240;43.210;27.910;2023-02-08T06:50:20;103173.03;;;-2.10;100.00
37368;BME280;23240;43.210;27.910;2023-02-08T06:52:45;103180.97;;;-2.07;100.00
37368;BME280;23240;43.210;27.910;2023-02-08T06:55:12;103195.00;;;-2.00;100.00
37368;BME280;23240;43.210;27.910;2023-02-08T06:57:37;103188.84;;;-2.03;100.00
37368;BME280;23240;43.210;27.910;2023-02-08T07:00:04;103192.28;;;-2.12;100.00
37368;BME280;23240;43.210;27.910;2023-02-08T07:02:29;103198.38;;;-2.16;100.00
37368;BME280;23240;43.210;27.910;2023-02-08T07:04:55;103194.91;;;-2.12;100.00
37368;BME280;23240;43.210;27.910;2023-02-08T07:07:21;103210.56;;;-2.20;100.00
37368;BME280;23240;43.210;27.910;2023-02-08T07:09:46;103208.75;;;-2.27;100.00
37368;BME280;23240;43.210;27.910;2023-02-08T07:12:12;103206.09;;;-2.30;100.00
37368;BME280;23240;43.210;27.910;2023-02-08T07:14:39;103213.16;;;-2.23;100.00
37368;BME280;23240;43.210;27.910;2023-02-08T07:17:05;103208.09;;;-2.08;100.00
37368;BME280;23240;43.210;27.910;2023-02-08T07:19:31;103200.41;;;-1.88;100.00
37368;BME280;23240;43.210;27.910;2023-02-08T07:21:57;103205.75;;;-1.78;100.00
37368;BME280;23240;43.210;27.910;2023-02-08T07:24:38;103230.22;;;-1.83;100.00
37368;BME280;23240;43.210;27.910;2023-02-08T07:27:06;103209.13;;;-1.89;100.00
37368;BME280;23240;43.210;27.910;2023-02-08T07:29:32;103203.03;;;-1.86;100.00
37368;BME280;23240;43.210;27.910;2023-02-08T07:32:00;103240.66;;;-1.89;100.00
37368;BME280;23240;43.210;27.910;2023-02-08T07:34:28;103203.94;;;-1.79;100.00
37368;BME280;23240;43.210;27.910;2023-02-08T07:36:54;103220.75;;;-1.64;100.00
37368;BME280;23240;43.210;27.910;2023-02-08T07:39:20;103206.56;;;-1.81;100.00
37368;BME280;23240;43.210;27.910;2023-02-08T07:41:46;103197.06;;;-1.67;100.00
37368;BME280;23240;43.210;27.910;2023-02-08T07:44:11;103197.94;;;-1.65;100.00
37368;BME280;23240;43.210;27.910;2023-02-08T07:46:38;103188.34;;;-1.61;100.00
37368;BME280;23240;43.210;27.910;2023-02-08T07:49:05;103190.84;;;-1.78;100.00
37368;BME280;23240;43.210;27.910;2023-02-08T07:51:30;103204.06;;;-1.67;100.00
37368;BME280;23240;43.210;27.910;2023-02-08T07:53:56;103215.50;;;-1.64;100.00
37368;BME280;23240;43.210;27.910;2023-02-08T07:56:21;103192.00;;;-1.41;100.00
37368;BME280;23240;43.210;27.910;2023-02-08T07:58:47;103189.44;;;-1.32;100.00
37368;BME280;23240;43.210;27.910;2023-02-08T08:01:12;103198.22;;;-1.33;100.00
37368;BME280;23240;43.210;27.910;2023-02-08T08:03:38;103192.03;;;-1.36;100.00
37368;BME280;23240;43.210;27.910;2023-02-08T08:06:03;103202.53;;;-1.41;100.00
37368;BME280;23240;43.210;27.910;2023-02-08T08:08:29;103219.16;;;-1.43;100.00
37368;BME280;23240;43.210;27.910;2023-02-08T08:10:54;103195.44;;;-1.51;100.00
37368;BME280;23240;43.210;27.910;2023-02-08T08:13:22;103197.97;;;-1.62;100.00
37368;BME280;23240;43.210;27.910;2023-02-08T08:15:50;103225.06;;;-1.72;100.00
37368;BME280;23240;43.210;27.910;2023-02-08T08:18:15;103208.53;;;-1.56;100.00
37368;BME280;23240;43.210;27.910;2023-02-08T08:20:41;103211.16;;;-1.57;100.00
37368;BME280;23240;43.210;27.910;2023-02-08T08:23:07;103229.59;;;-1.52;100.00
37368;BME280;23240;43.210;27.910;2023-02-08T08:25:32;103208.63;;;-1.49;100.00
37368;BME280;23240;43.210;27.910;2023-02-08T08:27:58;103206.91;;;-1.41;100.00
37368;BME280;23240;43.210;27.910;2023-02-08T08:30:23;103216.50;;;-1.48;100.00
37368;BME280;23240;43.210;27.910;2023-02-08T08:32:49;103211.28;;;-1.42;100.00
37368;BME280;23240;43.210;27.910;2023-02-08T08:35:14;103217.19;;;-1.72;100.00
37368;BME280;23240;43.210;27.910;2023-02-08T08:37:40;103215.44;;;-1.70;100.00
37368;BME280;23240;43.210;27.910;2023-02-08T08:40:07;103211.91;;;-1.72;100.00
37368;BME280;23240;43.210;27.910;2023-02-08T08:42:33;103230.31;;;-1.72;100.00
37368;BME280;23240;43.210;27.910;2023-02-08T08:45:01;103217.25;;;-1.60;100.00
37368;BME280;23240;43.210;27.910;2023-02-08T08:47:26;103212.03;;;-1.57;100.00
37368;BME280;23240;43.210;27.910;2023-02-08T08:49:52;103212.00;;;-1.63;100.00
37368;BME280;23240;43.210;27.910;2023-02-08T08:52:17;103205.94;;;-1.54;100.00
37368;BME280;23240;43.210;27.910;2023-02-08T08:54:43;103221.59;;;-1.65;100.00
37368;BME280;23240;43.210;27.910;2023-02-08T08:57:08;103232.97;;;-1.67;100.00
37368;BME280;23240;43.210;27.910;2023-02-08T08:59:34;103229.31;;;-1.85;100.00
37368;BME280;23240;43.210;27.910;2023-02-08T09:01:59;103230.19;;;-1.86;100.00
37368;BME280;23240;43.210;27.910;2023-02-08T09:04:25;103211.69;;;-1.96;100.00
37368;BME280;23240;43.210;27.910;2023-02-08T09:06:52;103229.25;;;-1.89;100.00
37368;BME280;23240;43.210;27.910;2023-02-08T09:09:18;103233.81;;;-1.73;100.00
37368;BME280;23240;43.210;27.910;2023-02-08T09:11:45;103240.00;;;-1.68;100.00
37368;BME280;23240;43.210;27.910;2023-02-08T09:14:10;103232.22;;;-1.54;100.00
37368;BME280;23240;43.210;27.910;2023-02-08T09:16:37;103235.84;;;-1.40;100.00
37368;BME280;23240;43.210;27.910;2023-02-08T09:19:06;103234.13;;;-1.32;100.00
37368;BME280;23240;43.210;27.910;2023-02-08T09:21:32;103240.16;;;-1.46;100.00
37368;BME280;23240;43.210;27.910;2023-02-08T09:24:00;103242.88;;;-1.36;100.00
37368;BME280;23240;43.210;27.910;2023-02-08T09:26:26;103247.31;;;-1.27;100.00
37368;BME280;23240;43.210;27.910;2023-02-08T09:28:52;103236.81;;;-1.30;100.00
37368;BME280;23240;43.210;27.910;2023-02-08T09:31:28;103241.19;;;-1.29;100.00
37368;BME280;23240;43.210;27.910;2023-02-08T09:33:56;103261.22;;;-1.40;100.00
37368;BME280;23240;43.210;27.910;2023-02-08T09:36:25;103244.63;;;-1.36;100.00
37368;BME280;23240;43.210;27.910;2023-02-08T09:38:55;103247.34;;;-1.25;100.00
37368;BME280;23240;43.210;27.910;2023-02-08T09:44:19;103272.75;;;-1.27;100.00
37368;BME280;23240;43.210;27.910;2023-02-08T09:46:58;103269.06;;;-1.46;100.00
37368;BME280;23240;43.210;27.910;2023-02-08T09:49:39;103260.44;;;-1.35;100.00
37368;BME280;23240;43.210;27.910;2023-02-08T09:52:17;103267.50;;;-1.27;100.00
37368;BME280;23240;43.210;27.910;2023-02-08T09:54:58;103258.03;;;-1.06;100.00
37368;BME280;23240;43.210;27.910;2023-02-08T09:57:32;103252.78;;;-0.99;100.00
37368;BME280;23240;43.210;27.910;2023-02-08T10:00:02;103265.72;;;-1.28;100.00
37368;BME280;23240;43.210;27.910;2023-02-08T10:02:31;103255.22;;;-1.28;100.00
37368;BME280;23240;43.210;27.910;2023-02-08T10:05:27;103252.72;;;-1.10;100.00
37368;BME280;23240;43.210;27.910;2023-02-08T10:07:53;103246.75;;;-0.85;100.00
37368;BME280;23240;43.210;27.910;2023-02-08T10:15:47;103278.28;;;-0.91;100.00
37368;BME280;23240;43.210;27.910;2023-02-08T10:23:59;103273.47;;;-1.48;100.00
37368;BME280;23240;43.210;27.910;2023-02-08T10:27:16;103239.03;;;-1.74;100.00
37368;BME280;23240;43.210;27.910;2023-02-08T10:34:53;103244.81;;;-1.15;100.00
37368;BME280;23240;43.210;27.910;2023-02-08T10:37:31;103236.97;;;-1.06;100.00
37368;BME280;23240;43.210;27.910;2023-02-08T10:40:12;103238.78;;;-0.92;100.00
37368;BME280;23240;43.210;27.910;2023-02-08T10:42:40;103238.84;;;-0.83;100.00
37368;BME280;23240;43.210;27.910;2023-02-08T10:49:04;103238.94;;;-0.71;100.00
37368;BME280;23240;43.210;27.910;2023-02-08T10:51:04;103250.97;;;-1.08;100.00
37368;BME280;23240;43.210;27.910;2023-02-08T10:53:31;103259.81;;;-1.01;100.00
37368;BME280;23240;43.210;27.910;2023-02-08T10:55:56;103252.78;;;-0.99;100.00
37368;BME280;23240;43.210;27.910;2023-02-08T10:58:23;103259.63;;;-1.24;100.00
37368;BME280;23240;43.210;27.910;2023-02-08T11:00:52;103248.28;;;-1.19;100.00
37368;BME280;23240;43.210;27.910;2023-02-08T11:03:28;103247.59;;;-0.92;100.00
37368;BME280;23240;43.210;27.910;2023-02-08T11:05:55;103259.13;;;-0.65;100.00
37368;BME280;23240;43.210;27.910;2023-02-08T11:08:24;103252.13;;;-0.59;100.00
37368;BME280;23240;43.210;27.910;2023-02-08T11:11:08;103265.34;;;-0.53;100.00
37368;BME280;23240;43.210;27.910;2023-02-08T11:13:37;103268.03;;;-0.43;100.00
37368;BME280;23240;43.210;27.910;2023-02-08T11:16:05;103265.44;;;-0.31;100.00
37368;BME280;23240;43.210;27.910;2023-02-08T11:21:02;103275.06;;;-0.30;100.00
37368;BME280;23240;43.210;27.910;2023-02-08T11:23:36;103265.22;;;-0.75;100.00
37368;BME280;23240;43.210;27.910;2023-02-08T11:29:16;103269.56;;;-0.81;100.00
37368;BME280;23240;43.210;27.910;2023-02-08T11:34:36;103261.69;;;-0.82;100.00
37368;BME280;23240;43.210;27.910;2023-02-08T11:39:50;103276.63;;;-0.76;100.00
37368;BME280;23240;43.210;27.910;2023-02-08T11:42:19;103285.28;;;-0.96;100.00
37368;BME280;23240;43.210;27.910;2023-02-08T11:44:46;103267.53;;;-1.21;100.00
37368;BME280;23240;43.210;27.910;2023-02-08T11:47:16;103275.25;;;-1.44;100.00
37368;BME280;23240;43.210;27.910;2023-02-08T11:49:45;103271.94;;;-1.20;100.00
37368;BME280;23240;43.210;27.910;2023-02-08T11:52:27;103273.66;;;-1.24;100.00
37368;BME280;23240;43.210;27.910;2023-02-08T11:55:11;103265.72;;;-1.27;100.00
37368;BME280;23240;43.210;27.910;2023-02-08T11:58:00;103277.09;;;-1.31;100.00
37368;BME280;23240;43.210;27.910;2023-02-08T12:03:15;103261.38;;;-1.25;100.00
37368;BME280;23240;43.210;27.910;2023-02-08T12:11:43;103256.09;;;-1.28;100.00
37368;BME280;23240;43.210;27.910;2023-02-08T12:14:15;103257.09;;;-1.11;100.00
37368;BME280;23240;43.210;27.910;2023-02-08T12:22:11;103242.88;;;-1.36;100.00
37368;BME280;23240;43.210;27.910;2023-02-08T12:30:30;103231.75;;;-0.99;100.00
37368;BME280;23240;43.210;27.910;2023-02-08T12:41:27;103224.72;;;-1.00;100.00
37368;BME280;23240;43.210;27.910;2023-02-08T12:44:10;103247.53;;;-1.01;100.00
37368;BME280;23240;43.210;27.910;2023-02-08T12:46:50;103236.91;;;-1.15;100.00
37368;BME280;23240;43.210;27.910;2023-02-08T12:53:00;103247.41;;;-1.21;100.00
37368;BME280;23240;43.210;27.910;2023-02-08T12:55:30;103228.06;;;-1.21;100.00
37368;BME280;23240;43.210;27.910;2023-02-08T12:58:13;103229.91;;;-1.14;100.00
37368;BME280;23240;43.210;27.910;2023-02-08T13:00:45;103231.63;;;-1.18;100.00
37368;BME280;23240;43.210;27.910;2023-02-08T13:05:44;103243.88;;;-1.17;100.00
37368;BME280;23240;43.210;27.910;2023-02-08T13:08:22;103268.44;;;-1.18;100.00
37368;BME280;23240;43.210;27.910;2023-02-08T13:10:55;103241.31;;;-1.11;100.00
37368;BME280;23240;43.210;27.910;2023-02-08T13:13:27;103242.31;;;-0.92;100.00
37368;BME280;23240;43.210;27.910;2023-02-08T13:16:12;103246.72;;;-0.89;100.00
37368;BME280;23240;43.210;27.910;2023-02-08T13:18:45;103251.16;;;-0.81;100.00
37368;BME280;23240;43.210;27.910;2023-02-08T13:21:15;103254.69;;;-0.74;100.00
37368;BME280;23240;43.210;27.910;2023-02-08T13:23:46;103252.97;;;-0.70;100.00
37368;BME280;23240;43.210;27.910;2023-02-08T13:26:19;103254.69;;;-0.75;100.00
37368;BME280;23240;43.210;27.910;2023-02-08T13:28:53;103266.09;;;-0.76;100.00
37368;BME280;23240;43.210;27.910;2023-02-08T13:33:55;103252.88;;;-0.84;100.00
37368;BME280;23240;43.210;27.910;2023-02-08T13:36:29;103260.81;;;-0.81;100.00
37368;BME280;23240;43.210;27.910;2023-02-08T13:38:57;103253.72;;;-0.88;100.00
37368;BME280;23240;43.210;27.910;2023-02-08T13:41:24;103258.13;;;-0.84;100.00
37368;BME280;23240;43.210;27.910;2023-02-08T13:44:18;103253.81;;;-0.73;100.00
37368;BME280;23240;43.210;27.910;2023-02-08T13:46:47;103265.19;;;-0.80;100.00
37368;BME280;23240;43.210;27.910;2023-02-08T14:00:30;103272.09;;;-0.99;100.00
37368;BME280;23240;43.210;27.910;2023-02-08T14:08:07;103278.19;;;-1.05;100.00
37368;BME280;23240;43.210;27.910;2023-02-08T14:10:45;103273.81;;;-1.02;100.00
37368;BME280;23240;43.210;27.910;2023-02-08T14:13:26;103294.78;;;-1.12;100.00
37368;BME280;23240;43.210;27.910;2023-02-08T14:29:57;103284.22;;;-1.18;100.00
37368;BME280;23240;43.210;27.910;2023-02-08T14:32:25;103278.94;;;-1.21;100.00
37368;BME280;23240;43.210;27.910;2023-02-08T14:35:03;103282.50;;;-1.16;100.00
37368;BME280;23240;43.210;27.910;2023-02-08T14:37:32;103280.72;;;-1.17;100.00
37368;BME280;23240;43.210;27.910;2023-02-08T14:48:01;103307.75;;;-1.33;100.00
37368;BME280;23240;43.210;27.910;2023-02-08T14:50:32;103306.84;;;-1.38;100.00
37368;BME280;23240;43.210;27.910;2023-02-08T14:55:49;103312.91;;;-1.45;100.00
37368;BME280;23240;43.210;27.910;2023-02-08T14:58:31;103310.22;;;-1.53;100.00
37368;BME280;23240;43.210;27.910;2023-02-08T15:01:01;103318.88;;;-1.62;100.00
37368;BME280;23240;43.210;27.910;2023-02-08T15:03:31;103312.75;;;-1.62;100.00
37368;BME280;23240;43.210;27.910;2023-02-08T15:06:41;103314.50;;;-1.61;100.00
37368;BME280;23240;43.210;27.910;2023-02-08T15:09:20;103326.81;;;-1.57;100.00
37368;BME280;23240;43.210;27.910;2023-02-08T15:11:58;103345.13;;;-1.65;100.00
37368;BME280;23240;43.210;27.910;2023-02-08T15:14:26;103326.66;;;-1.69;100.00